Time;durP1;ratioP1;P1;durP2;ratioP2;P2;SDS_P1;SDS_P2;PMS_P1;PMS_P2;Temp;Humidity;BMP_temperature;BMP_pressure;BME280_temperature;BME280_humidity;BME280_pressure;Samples;Min_cycle;Max_cycle;Signal;HPM_P1;HPM_P2
2022/03/04 00:01:58;;;;;;;0.00;0.00;;;7.00;99.90;;;;;;5031169;28;20116;-63
2022/03/04 00:04:23;;;;;;;0.00;0.00;;;6.90;99.90;;;;;;5013981;28;20029;-62
2022/03/04 00:06:49;;;;;;;0.00;0.00;;;6.80;99.90;;;;;;5029931;28;20026;-62
2022/03/04 00:09:15;;;;;;;0.00;0.00;;;6.80;99.90;;;;;;5048199;28;20018;-61
2022/03/04 00:11:42;;;;;;;0.00;0.00;;;6.70;99.90;;;;;;5039507;28;20033;-61
2022/03/04 00:14:08;;;;;;;0.00;0.00;;;6.80;99.90;;;;;;5049166;28;20034;-62
2022/03/04 00:16:34;;;;;;;0.00;0.00;;;6.80;99.90;;;;;;5048516;28;20034;-62
2022/03/04 00:19:07;;;;;;;0.00;0.00;;;6.90;99.90;;;;;;5038079;28;20025;-66
2022/03/04 00:21:42;;;;;;;0.00;0.00;;;6.90;99.90;;;;;;5033922;28;20543;-61
2022/03/04 00:24:09;;;;;;;0.00;0.00;;;6.90;99.90;;;;;;5017353;28;20236;-60
2022/03/04 00:26:36;;;;;;;0.00;0.00;;;6.80;99.90;;;;;;5034376;28;20029;-60
2022/03/04 00:29:02;;;;;;;0.00;0.00;;;6.80;99.90;;;;;;5013101;28;20026;-60
2022/03/04 00:31:28;;;;;;;0.00;0.00;;;6.80;99.90;;;;;;5036978;28;20048;-60
2022/03/04 00:33:54;;;;;;;0.00;0.00;;;6.80;99.90;;;;;;5016857;28;20018;-61
2022/03/04 00:36:23;;;;;;;0.00;0.00;;;6.80;99.90;;;;;;5011670;28;20057;-61
2022/03/04 00:38:54;;;;;;;0.00;0.00;;;6.70;99.90;;;;;;5033060;28;20112;-61
2022/03/04 00:41:22;;;;;;;0.00;0.00;;;6.60;99.90;;;;;;5028747;28;20041;-61
2022/03/04 00:43:48;;;;;;;0.00;0.00;;;6.60;99.90;;;;;;5033153;28;20052;-61
2022/03/04 00:46:15;;;;;;;0.00;0.00;;;6.50;99.90;;;;;;5039385;28;20514;-61
2022/03/04 00:48:41;;;;;;;;;;;6.50;99.90;;;;;;5037175;28;20029;-61
2022/03/04 00:51:08;;;;;;;0.00;0.00;;;6.40;99.90;;;;;;5035259;28;19917;-61
2022/03/04 00:53:33;;;;;;;;;;;6.50;99.90;;;;;;5015000;28;20506;-62
2022/03/04 00:55:59;;;;;;;0.00;0.00;;;6.40;99.90;;;;;;5035957;28;19909;-61
2022/03/04 00:58:26;;;;;;;0.00;0.00;;;6.40;99.90;;;;;;5035536;28;20022;-61
2022/03/04 01:00:52;;;;;;;0.00;0.00;;;6.40;99.90;;;;;;5033186;28;20049;-62
2022/03/04 01:03:18;;;;;;;;;;;6.40;99.90;;;;;;5037215;28;20026;-61
2022/03/04 01:05:43;;;;;;;0.00;0.00;;;6.50;99.90;;;;;;5036693;28;20443;-63
2022/03/04 01:08:10;;;;;;;0.00;0.00;;;6.60;99.90;;;;;;5009075;28;20028;-62
2022/03/04 01:10:35;;;;;;;;;;;6.70;99.90;;;;;;5033047;28;20065;-62
2022/03/04 01:13:02;;;;;;;0.00;0.00;;;6.70;99.90;;;;;;5031161;28;19943;-60
2022/03/04 01:15:27;;;;;;;;;;;6.60;99.90;;;;;;5024064;28;20369;-61
2022/03/04 01:17:53;;;;;;;0.00;0.00;;;6.50;99.90;;;;;;5034332;28;19920;-61
2022/03/04 01:20:19;;;;;;;0.00;0.00;;;6.50;99.90;;;;;;5030605;28;20514;-61
2022/03/04 01:22:45;;;;;;;0.00;0.00;;;6.50;99.90;;;;;;5030839;28;20748;-60
2022/03/04 01:25:11;;;;;;;0.00;0.00;;;6.60;99.90;;;;;;5026935;28;20444;-62
2022/03/04 01:27:36;;;;;;;;;;;6.60;99.90;;;;;;5027626;28;20034;-61
2022/03/04 01:30:04;;;;;;;0.00;0.00;;;6.50;99.90;;;;;;5028871;28;19932;-61
2022/03/04 01:32:30;;;;;;;0.00;0.00;;;6.50;99.90;;;;;;5016671;28;20113;-61
2022/03/04 01:34:56;;;;;;;0.00;0.00;;;6.50;99.90;;;;;;5033521;28;20499;-65
2022/03/04 01:37:21;;;;;;;0.00;0.00;;;6.50;99.90;;;;;;5039525;28;20360;-61
2022/03/04 01:39:47;;;;;;;0.00;0.00;;;6.50;99.90;;;;;;5034122;28;20052;-60
2022/03/04 01:42:13;;;;;;;0.00;0.00;;;6.60;99.90;;;;;;5026921;28;20061;-61
2022/03/04 01:44:40;;;;;;;0.00;0.00;;;6.60;99.90;;;;;;5030201;28;20034;-61
2022/03/04 01:47:06;;;;;;;0.00;0.00;;;6.80;99.90;;;;;;5032887;28;20064;-63
2022/03/04 01:49:32;;;;;;;0.00;0.00;;;6.80;99.90;;;;;;5034310;28;20030;-61
2022/03/04 01:51:58;;;;;;;0.00;0.00;;;6.80;99.90;;;;;;5033942;28;20068;-61
2022/03/04 01:54:24;;;;;;;0.00;0.00;;;6.80;99.90;;;;;;5009059;28;20022;-62
2022/03/04 01:56:50;;;;;;;0.00;0.00;;;6.70;99.90;;;;;;5028669;28;20014;-62
2022/03/04 01:59:16;;;;;;;0.00;0.00;;;6.70;99.90;;;;;;5018470;28;20030;-61
2022/03/04 02:01:43;;;;;;;0.00;0.00;;;6.70;99.90;;;;;;5028783;28;20021;-62
2022/03/04 02:04:08;;;;;;;0.00;0.00;;;6.60;99.90;;;;;;5028716;28;20491;-61
2022/03/04 02:06:34;;;;;;;0.00;0.00;;;6.60;99.90;;;;;;5027864;28;20061;-62
2022/03/04 02:09:00;;;;;;;0.00;0.00;;;6.50;99.90;;;;;;5015849;28;20025;-62
2022/03/04 02:11:26;;;;;;;0.00;0.00;;;6.50;99.90;;;;;;5031749;28;20029;-62
2022/03/04 02:13:52;;;;;;;0.00;0.00;;;6.40;99.90;;;;;;5030904;28;20087;-61
2022/03/04 02:16:34;;;;;;;0.00;0.00;;;6.50;99.90;;;;;;5028029;28;20084;-62
2022/03/04 02:19:00;;;;;;;0.00;0.00;;;6.60;99.90;;;;;;5023625;28;20121;-62
2022/03/04 02:21:26;;;;;;;;;;;6.60;99.90;;;;;;5033220;28;20089;-64
2022/03/04 02:23:52;;;;;;;0.00;0.00;;;6.60;99.90;;;;;;5030037;28;20416;-61
2022/03/04 02:26:17;;;;;;;0.00;0.00;;;6.60;99.90;;;;;;5033069;28;20037;-62
2022/03/04 02:28:44;;;;;;;0.00;0.00;;;6.60;99.90;;;;;;5027364;28;20041;-62
2022/03/04 02:31:16;;;;;;;0.00;0.00;;;6.60;99.90;;;;;;5026588;28;20442;-62
2022/03/04 02:33:43;;;;;;;0.00;0.00;;;6.60;99.90;;;;;;5008378;28;20044;-61
2022/03/04 02:36:08;;;;;;;;;;;6.50;99.90;;;;;;5027398;28;20025;-61
2022/03/04 02:38:34;;;;;;;0.00;0.00;;;6.50;99.90;;;;;;5027046;28;19963;-63
2022/03/04 02:41:00;;;;;;;0.00;0.00;;;6.40;99.90;;;;;;5031593;28;20057;-62
2022/03/04 02:43:26;;;;;;;0.00;0.00;;;6.40;99.90;;;;;;5028671;28;20029;-61
2022/03/04 02:45:52;;;;;;;0.00;0.00;;;6.40;99.90;;;;;;5031028;28;20083;-61
2022/03/04 02:48:21;;;;;;;0.00;0.00;;;6.40;99.90;;;;;;5027008;28;20056;-61
2022/03/04 02:50:47;;;;;;;0.00;0.00;;;6.40;99.90;;;;;;5034945;28;20064;-62
2022/03/04 02:53:13;;;;;;;0.00;0.00;;;6.40;99.90;;;;;;5032482;28;20049;-61
2022/03/04 02:55:38;;;;;;;0.00;0.00;;;6.40;99.90;;;;;;5028152;28;20022;-61
2022/03/04 02:58:04;;;;;;;0.00;0.00;;;6.40;99.90;;;;;;5033771;28;20024;-62
2022/03/04 03:00:31;;;;;;;0.00;0.00;;;6.40;99.90;;;;;;5034094;28;20041;-63
2022/03/04 03:02:56;;;;;;;0.00;0.00;;;6.60;99.90;;;;;;5028204;28;20022;-61
2022/03/04 03:05:22;;;;;;;0.00;0.00;;;6.70;99.90;;;;;;5014399;28;20022;-61
2022/03/04 03:07:48;;;;;;;0.00;0.00;;;6.80;99.90;;;;;;5013712;28;20155;-62
2022/03/04 03:10:14;;;;;;;0.00;0.00;;;6.70;99.90;;;;;;5033317;28;20209;-62
2022/03/04 03:12:40;;;;;;;0.00;0.00;;;6.70;99.90;;;;;;5032419;28;20087;-63
2022/03/04 03:15:07;;;;;;;0.00;0.00;;;6.70;99.90;;;;;;5030505;28;20522;-63
2022/03/04 03:17:33;;;;;;;0.00;0.00;;;6.60;99.90;;;;;;5027362;28;20108;-62
2022/03/04 03:19:59;;;;;;;0.00;0.00;;;6.50;99.90;;;;;;5026706;28;20506;-61
2022/03/04 03:22:25;;;;;;;0.00;0.00;;;6.60;99.90;;;;;;5030254;28;20041;-61
2022/03/04 03:24:51;;;;;;;0.00;0.00;;;6.60;99.90;;;;;;5026993;28;20018;-61
2022/03/04 03:27:17;;;;;;;0.00;0.00;;;6.60;99.90;;;;;;5003802;28;20053;-63
2022/03/04 03:29:43;;;;;;;0.00;0.00;;;6.70;99.90;;;;;;5032365;28;20860;-62
2022/03/04 03:32:10;;;;;;;0.00;0.00;;;6.80;99.90;;;;;;5034748;28;20049;-62
2022/03/04 03:34:36;;;;;;;0.00;0.00;;;6.80;99.90;;;;;;5010359;28;20026;-61
2022/03/04 03:37:03;;;;;;;0.00;0.00;;;6.60;99.90;;;;;;5032414;28;20052;-61
2022/03/04 03:39:28;;;;;;;0.00;0.00;;;6.60;99.90;;;;;;5029891;28;20057;-61
2022/03/04 03:41:54;;;;;;;0.00;0.00;;;6.50;99.90;;;;;;5020775;28;20063;-61
2022/03/04 03:44:20;;;;;;;0.00;0.00;;;6.50;99.90;;;;;;5031137;28;20076;-62
2022/03/04 03:46:46;;;;;;;0.00;0.00;;;6.50;99.90;;;;;;5031641;28;20380;-64
2022/03/04 03:49:13;;;;;;;0.00;0.00;;;6.60;99.90;;;;;;5035358;28;20029;-60
2022/03/04 03:51:38;;;;;;;0.00;0.00;;;6.50;99.90;;;;;;5018299;28;20044;-62
2022/03/04 03:54:04;;;;;;;0.00;0.00;;;6.50;99.90;;;;;;5032151;28;20029;-61
2022/03/04 03:56:30;;;;;;;0.00;0.00;;;6.60;99.90;;;;;;5016058;28;20033;-62
2022/03/04 03:58:55;;;;;;;0.00;0.00;;;6.60;99.90;;;;;;5035490;28;20025;-61
2022/03/04 04:01:21;;;;;;;0.00;0.00;;;6.60;99.90;;;;;;5031400;28;20037;-62
2022/03/04 04:03:48;;;;;;;0.00;0.00;;;6.50;99.90;;;;;;5034630;28;20056;-62
2022/03/04 04:06:14;;;;;;;0.00;0.00;;;6.40;99.90;;;;;;5017170;28;20116;-61
2022/03/04 04:08:40;;;;;;;0.00;0.00;;;6.40;99.90;;;;;;5032852;28;20483;-62
2022/03/04 04:11:06;;;;;;;0.00;0.00;;;6.40;99.90;;;;;;5010703;28;20052;-62
2022/03/04 04:13:32;;;;;;;0.00;0.00;;;6.30;99.90;;;;;;5023634;28;20030;-62
2022/03/04 04:16:01;;;;;;;0.00;0.00;;;6.30;99.90;;;;;;5033015;28;20029;-62
2022/03/04 04:18:27;;;;;;;0.00;0.00;;;6.30;99.90;;;;;;5017691;28;20029;-62
2022/03/04 04:20:52;;;;;;;0.00;0.00;;;6.30;99.90;;;;;;5033565;28;20395;-62
2022/03/04 04:23:18;;;;;;;0.00;0.00;;;6.40;99.90;;;;;;5034579;28;20036;-62
2022/03/04 04:25:44;;;;;;;0.00;0.00;;;6.30;99.90;;;;;;5030223;28;20017;-62
2022/03/04 04:28:09;;;;;;;0.00;0.00;;;6.30;99.90;;;;;;5033291;28;20476;-61
2022/03/04 04:30:35;;;;;;;0.00;0.00;;;6.40;99.90;;;;;;5022755;28;20136;-62
2022/03/04 04:33:01;;;;;;;;;;;6.40;99.90;;;;;;5042809;28;20037;-63
2022/03/04 04:35:27;;;;;;;0.00;0.00;;;6.50;99.90;;;;;;5051264;28;19909;-61
2022/03/04 04:37:52;;;;;;;0.00;0.00;;;6.40;99.90;;;;;;5051931;28;20025;-61
2022/03/04 04:40:18;;;;;;;0.00;0.00;;;6.40;99.90;;;;;;5051917;28;20548;-62
2022/03/04 04:42:44;;;;;;;0.00;0.00;;;6.50;99.90;;;;;;5053513;28;20025;-62
2022/03/04 04:45:10;;;;;;;0.00;0.00;;;6.50;99.90;;;;;;5052259;28;20025;-61
2022/03/04 04:47:36;;;;;;;0.00;0.00;;;6.40;99.90;;;;;;5043528;28;20491;-63
2022/03/04 04:50:02;;;;;;;0.00;0.00;;;6.40;99.90;;;;;;5051571;28;20036;-62
2022/03/04 04:52:28;;;;;;;0.00;0.00;;;6.50;99.90;;;;;;5054050;28;20033;-62
2022/03/04 04:54:54;;;;;;;0.00;0.00;;;6.50;99.90;;;;;;5052035;28;20088;-62
2022/03/04 04:57:20;;;;;;;0.00;0.00;;;6.60;99.90;;;;;;5043596;28;20033;-62
2022/03/04 04:59:45;;;;;;;0.00;0.00;;;6.60;99.90;;;;;;5052022;28;20497;-61
2022/03/04 05:02:11;;;;;;;0.00;0.00;;;6.70;99.90;;;;;;5049196;28;20575;-62
2022/03/04 05:04:37;;;;;;;0.00;0.00;;;6.70;99.90;;;;;;5041398;28;20026;-62
2022/03/04 05:07:03;;;;;;;0.00;0.00;;;6.80;99.90;;;;;;5051611;28;20088;-61
2022/03/04 05:09:29;;;;;;;0.00;0.00;;;6.70;99.90;;;;;;5057541;28;20128;-61
2022/03/04 05:11:54;;;;;;;0.00;0.00;;;6.80;99.90;;;;;;5056497;28;20494;-61
2022/03/04 05:14:20;;;;;;;0.00;0.00;;;7.00;99.90;;;;;;5056154;28;20017;-63
2022/03/04 05:16:46;;;;;;;0.00;0.00;;;7.10;99.90;;;;;;5056532;28;20029;-62
2022/03/04 05:19:12;;;;;;;0.00;0.00;;;7.20;99.90;;;;;;5054796;28;20032;-62
2022/03/04 05:21:37;;;;;;;0.00;0.00;;;7.20;99.90;;;;;;5052142;28;20043;-61
2022/03/04 05:24:06;;;;;;;0.00;0.00;;;7.20;99.90;;;;;;5047552;28;20037;-61
2022/03/04 05:26:37;;;;;;;0.00;0.00;;;7.10;99.90;;;;;;5049688;28;20487;-61
2022/03/04 05:29:05;;;;;;;0.00;0.00;;;7.20;99.90;;;;;;5047865;28;20486;-62
2022/03/04 05:31:31;;;;;;;0.00;0.00;;;7.20;99.90;;;;;;5035694;28;20049;-61
2022/03/04 05:33:57;;;;;;;0.00;0.00;;;7.10;99.90;;;;;;5015284;28;20083;-63
2022/03/04 05:36:23;;;;;;;0.00;0.00;;;7.00;99.90;;;;;;5033352;28;20025;-61
2022/03/04 05:38:50;;;;;;;0.00;0.00;;;7.20;99.90;;;;;;5034492;28;20110;-62
2022/03/04 05:41:19;;;;;;;0.00;0.00;;;7.10;99.90;;;;;;5035635;28;20029;-62
2022/03/04 05:43:46;;;;;;;0.00;0.00;;;7.10;99.90;;;;;;5036300;28;20195;-60
2022/03/04 05:46:13;;;;;;;0.00;0.00;;;7.10;99.90;;;;;;5036012;28;20105;-62
2022/03/04 05:48:39;;;;;;;0.00;0.00;;;7.20;99.90;;;;;;5034479;28;20042;-62
2022/03/04 05:51:05;;;;;;;0.00;0.00;;;7.10;99.90;;;;;;5038500;28;20037;-61
2022/03/04 05:53:32;;;;;;;0.00;0.00;;;7.00;99.90;;;;;;5036682;28;20064;-61
2022/03/04 05:55:59;;;;;;;0.00;0.00;;;7.10;99.90;;;;;;5028049;28;20049;-61
2022/03/04 05:58:25;;;;;;;0.00;0.00;;;7.10;99.90;;;;;;5033994;28;20022;-62
2022/03/04 06:00:51;;;;;;;0.00;0.00;;;7.20;99.90;;;;;;5033692;28;20083;-61
2022/03/04 06:03:19;;;;;;;0.00;0.00;;;7.20;99.90;;;;;;5018198;28;20038;-61
2022/03/04 06:05:45;;;;;;;0.00;0.00;;;7.00;99.90;;;;;;5036959;28;20037;-61
2022/03/04 06:08:11;;;;;;;;;;;7.10;99.90;;;;;;5035002;28;20014;-61
2022/03/04 06:10:37;;;;;;;0.00;0.00;;;7.00;99.90;;;;;;5037424;28;19932;-61
2022/03/04 06:13:02;;;;;;;0.00;0.00;;;6.90;99.90;;;;;;5045708;28;20048;-61
2022/03/04 06:15:28;;;;;;;0.00;0.00;;;6.90;99.90;;;;;;5032934;28;20461;-61
2022/03/04 06:17:54;;;;;;;0.00;0.00;;;6.90;99.90;;;;;;5031183;28;20032;-61
2022/03/04 06:20:20;;;;;;;0.00;0.00;;;6.90;99.90;;;;;;5037036;28;20029;-61
2022/03/04 06:22:46;;;;;;;0.00;0.00;;;6.90;99.90;;;;;;5036146;28;20025;-61
2022/03/04 06:25:14;;;;;;;0.00;0.00;;;6.90;99.90;;;;;;5029752;28;20040;-62
2022/03/04 06:28:06;;;;;;;0.00;0.00;;;7.00;99.90;;;;;;5035399;28;20017;-60
2022/03/04 06:30:36;;;;;;;0.00;0.00;;;7.00;99.90;;;;;;5019008;28;20037;-62
2022/03/04 06:35:47;;;;;;;0.00;0.00;;;6.90;99.90;;;;;;5025057;28;20493;-62
2022/03/04 06:38:13;;;;;;;0.00;0.00;;;7.00;99.90;;;;;;5032211;28;20025;-60
2022/03/04 06:40:40;;;;;;;0.00;0.00;;;6.90;99.90;;;;;;5034135;28;20483;-62
2022/03/04 06:43:07;;;;;;;0.00;0.00;;;6.90;99.90;;;;;;5031738;28;20049;-61
2022/03/04 06:45:33;;;;;;;0.00;0.00;;;6.90;99.90;;;;;;5033053;28;20018;-61
2022/03/04 06:47:58;;;;;;;;;;;6.80;99.90;;;;;;5029264;28;20026;-63
2022/03/04 06:50:24;;;;;;;0.00;0.00;;;6.80;99.90;;;;;;5028056;28;20055;-61
2022/03/04 06:52:54;;;;;;;0.00;0.00;;;6.90;99.90;;;;;;5016138;28;20033;-62
2022/03/04 06:55:20;;;;;;;0.00;0.00;;;6.90;99.90;;;;;;5028559;28;20109;-62
2022/03/04 06:57:46;;;;;;;0.00;0.00;;;6.80;99.90;;;;;;5031839;28;20552;-61
2022/03/04 07:00:13;;;;;;;0.00;0.00;;;6.80;99.90;;;;;;5030351;28;20149;-62
2022/03/04 07:02:39;;;;;;;0.00;0.00;;;6.70;99.90;;;;;;5035361;28;20040;-62
2022/03/04 07:05:05;;;;;;;;;;;6.80;99.90;;;;;;5028471;28;20040;-63
2022/03/04 07:07:31;;;;;;;0.00;0.00;;;6.80;99.90;;;;;;5029298;28;20031;-64
2022/03/04 07:09:57;;;;;;;0.00;0.00;;;6.80;99.90;;;;;;5016299;28;20053;-63
2022/03/04 07:12:23;;;;;;;0.00;0.00;;;6.80;99.90;;;;;;5030968;28;20034;-62
2022/03/04 07:14:50;;;;;;;0.00;0.00;;;6.70;99.90;;;;;;5032337;28;20025;-63
2022/03/04 07:17:16;;;;;;;0.00;0.00;;;6.80;99.90;;;;;;5035634;28;20071;-61
2022/03/04 07:19:41;;;;;;;0.00;0.00;;;6.80;99.90;;;;;;5010636;28;20030;-61
2022/03/04 07:22:07;;;;;;;0.00;0.00;;;6.70;99.90;;;;;;5027441;28;20037;-62
2022/03/04 07:24:33;;;;;;;0.00;0.00;;;6.80;99.90;;;;;;5033464;28;20428;-63
2022/03/04 07:26:59;;;;;;;0.00;0.00;;;6.90;99.90;;;;;;5014106;28;20044;-61
2022/03/04 07:29:25;;;;;;;0.00;0.00;;;6.90;99.90;;;;;;5033897;28;20495;-62
2022/03/04 07:31:53;;;;;;;0.00;0.00;;;6.80;99.90;;;;;;5032380;28;20038;-61
2022/03/04 07:34:19;;;;;;;0.00;0.00;;;6.80;99.90;;;;;;5028084;28;20212;-62
2022/03/04 07:36:46;;;;;;;0.00;0.00;;;6.90;99.90;;;;;;5015225;28;20026;-61
2022/03/04 07:39:12;;;;;;;0.00;0.00;;;7.00;99.90;;;;;;5029282;28;20018;-61
2022/03/04 07:41:38;;;;;;;0.00;0.00;;;6.90;99.90;;;;;;5031843;28;20021;-61
2022/03/04 07:44:05;;;;;;;0.00;0.00;;;6.90;99.90;;;;;;5030294;28;20029;-61
2022/03/04 07:46:31;;;;;;;0.00;0.00;;;7.00;99.90;;;;;;5028237;28;20033;-62
2022/03/04 07:48:57;;;;;;;0.00;0.00;;;7.10;99.90;;;;;;5027042;28;20030;-61
2022/03/04 07:51:22;;;;;;;;;;;7.20;99.90;;;;;;5022850;28;20045;-63
2022/03/04 07:53:48;;;;;;;0.00;0.00;;;7.20;99.90;;;;;;5030376;28;19963;-61
2022/03/04 07:56:14;;;;;;;0.00;0.00;;;7.20;99.90;;;;;;5032714;28;20033;-60
2022/03/04 07:58:39;;;;;;;0.00;0.00;;;7.20;99.90;;;;;;5031481;28;20423;-60
2022/03/04 08:01:05;;;;;;;0.00;0.00;;;7.30;99.90;;;;;;5030945;28;20391;-61
2022/03/04 08:03:34;;;;;;;0.00;0.00;;;7.40;99.90;;;;;;5030583;28;20026;-61
2022/03/04 08:06:00;;;;;;;0.00;0.00;;;7.50;99.90;;;;;;5028889;28;20037;-61
2022/03/04 08:08:26;;;;;;;0.00;0.00;;;7.50;99.90;;;;;;5003334;28;20103;-61
2022/03/04 08:10:53;;;;;;;0.00;0.00;;;7.50;99.90;;;;;;5029832;28;20030;-60
2022/03/04 08:13:19;;;;;;;0.00;0.00;;;7.60;99.90;;;;;;5023360;28;20037;-61
2022/03/04 08:15:45;;;;;;;0.00;0.00;;;7.60;99.90;;;;;;5027263;28;20018;-61
2022/03/04 08:18:11;;;;;;;0.00;0.00;;;7.50;99.90;;;;;;5029369;28;20156;-61
2022/03/04 08:20:38;;;;;;;0.00;0.00;;;7.50;99.90;;;;;;5013351;28;20121;-61
2022/03/04 08:23:04;;;;;;;0.00;0.00;;;7.40;99.90;;;;;;5027204;28;20026;-61
2022/03/04 08:25:30;;;;;;;0.00;0.00;;;7.50;99.90;;;;;;5025538;28;20476;-61
2022/03/04 08:27:56;;;;;;;0.00;0.00;;;7.50;99.90;;;;;;5027574;28;20025;-62
2022/03/04 08:30:24;;;;;;;0.00;0.00;;;7.50;99.90;;;;;;5028721;28;20541;-63
2022/03/04 08:32:50;;;;;;;0.00;0.00;;;7.60;99.90;;;;;;5031718;28;20029;-61
2022/03/04 08:35:15;;;;;;;;;;;7.60;99.90;;;;;;5030514;28;21580;-63
2022/03/04 08:37:41;;;;;;;0.00;0.00;;;7.50;99.90;;;;;;5027863;28;19913;-61
2022/03/04 08:40:09;;;;;;;0.00;0.00;;;7.60;99.90;;;;;;5025954;28;20455;-63
2022/03/04 08:42:40;;;;;;;0.00;0.00;;;7.60;99.90;;;;;;5031941;28;20597;-61
2022/03/04 08:45:07;;;;;;;0.00;0.00;;;7.60;99.90;;;;;;5033380;28;20048;-61
2022/03/04 08:47:33;;;;;;;0.00;0.00;;;7.60;99.90;;;;;;5016290;28;20036;-62
2022/03/04 08:49:58;;;;;;;0.00;0.00;;;7.60;99.90;;;;;;5032838;28;20029;-60
2022/03/04 08:52:24;;;;;;;0.00;0.00;;;7.70;99.90;;;;;;5034084;28;20038;-61
2022/03/04 08:54:50;;;;;;;0.00;0.00;;;7.70;99.90;;;;;;5030929;28;20025;-62
2022/03/04 08:57:15;;;;;;;0.00;0.00;;;7.70;99.90;;;;;;5029774;28;20507;-61
2022/03/04 08:59:41;;;;;;;0.00;0.00;;;7.80;99.90;;;;;;5030299;28;20084;-61
2022/03/04 09:02:08;;;;;;;0.00;0.00;;;7.70;99.90;;;;;;5005579;28;20104;-61
2022/03/04 09:04:34;;;;;;;0.00;0.00;;;7.80;99.90;;;;;;5032773;28;20537;-61
2022/03/04 09:06:59;;;;;;;0.00;0.00;;;7.60;99.90;;;;;;5022957;28;20029;-61
2022/03/04 09:09:25;;;;;;;0.00;0.00;;;7.60;99.90;;;;;;5024194;28;20231;-62
2022/03/04 09:11:51;;;;;;;0.00;0.00;;;7.60;99.90;;;;;;5024078;28;20029;-63
2022/03/04 09:14:19;;;;;;;0.00;0.00;;;7.70;99.90;;;;;;5030047;28;20049;-63
2022/03/04 09:16:45;;;;;;;0.00;0.00;;;7.80;99.90;;;;;;5027867;28;20021;-62
2022/03/04 09:19:11;;;;;;;;;;;7.90;99.90;;;;;;5030870;28;20026;-62
2022/03/04 09:21:37;;;;;;;0.00;0.00;;;7.80;99.90;;;;;;5027621;28;20577;-63
2022/03/04 09:24:04;;;;;;;0.00;0.00;;;7.80;99.90;;;;;;5011822;28;20041;-62
2022/03/04 09:26:30;;;;;;;0.00;0.00;;;7.70;99.90;;;;;;5035618;28;20033;-62
2022/03/04 09:28:59;;;;;;;0.00;0.00;;;7.80;99.90;;;;;;5034094;28;20036;-63
2022/03/04 09:31:24;;;;;;;0.00;0.00;;;7.80;99.90;;;;;;5052362;28;20057;-62
2022/03/04 09:33:50;;;;;;;0.00;0.00;;;7.80;99.90;;;;;;5049777;28;20025;-62
2022/03/04 09:36:16;;;;;;;0.00;0.00;;;7.70;99.90;;;;;;5053115;28;20029;-61
2022/03/04 09:38:42;;;;;;;;;;;7.70;99.90;;;;;;5036314;28;20150;-62
2022/03/04 09:41:08;;;;;;;0.00;0.00;;;7.70;99.90;;;;;;5051341;28;19919;-62
2022/03/04 09:43:35;;;;;;;0.00;0.00;;;7.70;99.90;;;;;;5035986;28;20040;-61
2022/03/04 09:46:01;;;;;;;0.00;0.00;;;7.70;99.90;;;;;;5053744;28;20037;-61
2022/03/04 09:48:27;;;;;;;0.00;0.00;;;7.80;99.90;;;;;;5053650;28;20071;-62
2022/03/04 09:50:53;;;;;;;0.00;0.00;;;7.70;99.90;;;;;;5033523;28;20479;-62
2022/03/04 09:53:19;;;;;;;0.00;0.00;;;7.70;99.90;;;;;;5037822;28;20073;-62
2022/03/04 09:55:45;;;;;;;0.00;0.00;;;7.70;99.90;;;;;;5052471;28;20033;-62
2022/03/04 09:58:15;;;;;;;;;;;7.90;99.90;;;;;;5048437;28;20037;-60
2022/03/04 10:00:43;;;;;;;0.00;0.00;;;7.90;99.90;;;;;;5050939;28;19955;-62
2022/03/04 10:03:40;;;;;;;0.00;0.00;;;7.90;99.90;;;;;;5054827;28;20078;-62
2022/03/04 10:06:06;;;;;;;0.00;0.00;;;8.00;99.90;;;;;;5052565;28;20051;-61
2022/03/04 10:08:43;;;;;;;0.00;0.00;;;8.10;99.90;;;;;;5046880;28;20478;-62
2022/03/04 10:11:09;;;;;;;;;;;8.10;99.90;;;;;;5047653;28;20049;-62
2022/03/04 10:13:49;;;;;;;0.00;0.00;;;8.20;99.90;;;;;;5046041;28;20007;-62
2022/03/04 10:16:25;;;;;;;0.00;0.00;;;8.30;99.90;;;;;;5033575;28;20052;-61
2022/03/04 10:19:23;;;;;;;0.00;0.00;;;8.40;99.90;;;;;;5049211;28;20021;-62
2022/03/04 10:21:57;;;;;;;0.00;0.00;;;8.50;99.90;;;;;;4989714;28;20060;-62
2022/03/04 10:24:35;;;;;;;0.00;0.00;;;8.50;99.90;;;;;;5047314;28;20021;-62
2022/03/04 10:27:09;;;;;;;0.00;0.00;;;8.50;99.90;;;;;;5045716;28;20391;-61
2022/03/04 10:29:38;;;;;;;0.00;0.00;;;8.50;99.90;;;;;;5041650;28;20090;-61
2022/03/04 10:32:10;;;;;;;0.00;0.00;;;8.60;99.90;;;;;;5026153;28;20095;-61
2022/03/04 10:34:50;;;;;;;0.00;0.00;;;8.70;99.90;;;;;;5026571;28;20063;-62
2022/03/04 10:37:30;;;;;;;0.00;0.00;;;8.70;99.90;;;;;;5029765;28;20022;-62
2022/03/04 10:39:58;;;;;;;0.00;0.00;;;8.80;99.90;;;;;;5025274;28;20120;-61
2022/03/04 10:42:40;;;;;;;0.00;0.00;;;8.70;99.90;;;;;;5024753;28;20101;-62
2022/03/04 10:45:10;;;;;;;0.00;0.00;;;8.60;99.90;;;;;;5026384;28;20091;-63
2022/03/04 10:47:50;;;;;;;0.00;0.00;;;8.70;99.90;;;;;;5024184;28;20021;-62
2022/03/04 10:50:38;;;;;;;0.00;0.00;;;8.70;99.90;;;;;;5017245;28;20033;-63
2022/03/04 10:53:24;;;;;;;0.00;0.00;;;8.80;99.90;;;;;;5011337;28;20045;-62
2022/03/04 10:55:55;;;;;;;0.00;0.00;;;8.80;99.90;;;;;;5026568;28;20131;-62
2022/03/04 10:58:25;;;;;;;0.00;0.00;;;8.90;99.90;;;;;;5014064;28;20057;-63
2022/03/04 11:00:52;;;;;;;0.00;0.00;;;9.00;99.90;;;;;;5025199;28;20083;-63
2022/03/04 11:03:24;;;;;;;0.00;0.00;;;9.20;99.90;;;;;;5029658;28;20047;-62
2022/03/04 11:05:52;;;;;;;0.00;0.00;;;9.40;99.90;;;;;;5031443;28;20055;-60
2022/03/04 11:08:20;;;;;;;0.00;0.00;;;9.50;99.90;;;;;;5025248;28;20060;-61
2022/03/04 11:10:46;;;;;;;0.00;0.00;;;9.50;99.90;;;;;;5028745;28;20024;-62
2022/03/04 11:13:13;;;;;;;0.00;0.00;;;9.40;99.90;;;;;;5024569;28;20037;-61
2022/03/04 11:15:40;;;;;;;0.00;0.00;;;9.50;99.90;;;;;;5026689;28;20112;-62
2022/03/04 11:18:11;;;;;;;0.00;0.00;;;9.50;99.90;;;;;;5006561;28;20467;-62
2022/03/04 11:20:38;;;;;;;0.00;0.00;;;9.60;99.90;;;;;;5019628;28;20459;-62
2022/03/04 11:23:06;;;;;;;0.00;0.00;;;9.60;99.90;;;;;;5020742;28;20074;-62
2022/03/04 11:25:37;;;;;;;0.00;0.00;;;9.50;99.90;;;;;;5023269;28;20095;-62
2022/03/04 11:28:18;;;;;;;0.00;0.00;;;9.50;99.90;;;;;;5023099;28;20337;-61
2022/03/04 11:30:46;;;;;;;0.00;0.00;;;9.50;99.90;;;;;;5022144;28;20053;-61
2022/03/04 11:33:20;;;;;;;0.00;0.00;;;9.50;99.90;;;;;;5026954;28;20344;-62
2022/03/04 11:35:59;;;;;;;0.00;0.00;;;9.60;99.90;;;;;;5027505;28;20537;-63
2022/03/04 11:38:46;;;;;;;0.00;0.00;;;9.70;99.90;;;;;;5022975;28;20025;-61
2022/03/04 11:41:18;;;;;;;0.00;0.00;;;9.70;99.90;;;;;;5034085;28;20025;-61
2022/03/04 11:43:51;;;;;;;0.00;0.00;;;9.70;99.90;;;;;;5029344;28;20052;-62
2022/03/04 11:46:29;;;;;;;0.00;0.00;;;9.90;99.90;;;;;;5027552;28;20404;-61
2022/03/04 11:49:22;;;;;;;0.00;0.00;;;9.80;99.90;;;;;;5027360;28;20044;-63
2022/03/04 11:52:10;;;;;;;0.00;0.00;;;9.80;99.90;;;;;;5023038;28;20033;-62
2022/03/04 11:54:41;;;;;;;0.00;0.00;;;10.00;99.90;;;;;;5026711;28;20488;-62
2022/03/04 11:57:20;;;;;;;0.00;0.00;;;10.00;99.90;;;;;;5032250;28;20111;-62
2022/03/04 11:59:49;;;;;;;0.00;0.00;;;10.00;99.90;;;;;;5030928;28;20380;-61
2022/03/04 12:02:26;;;;;;;0.00;0.00;;;10.00;99.90;;;;;;5027723;28;20030;-61
2022/03/04 12:05:29;;;;;;;0.00;0.00;;;10.10;99.90;;;;;;5013270;28;20480;-62
2022/03/04 12:07:54;;;;;;;0.00;0.00;;;10.20;99.90;;;;;;5025352;28;20041;-62
2022/03/04 12:10:36;;;;;;;0.00;0.00;;;10.20;99.90;;;;;;5024140;28;20060;-62
2022/03/04 12:13:07;;;;;;;0.00;0.00;;;10.30;99.90;;;;;;5009195;28;20060;-62
2022/03/04 12:15:40;;;;;;;0.00;0.00;;;10.50;99.90;;;;;;5021960;28;20764;-62
2022/03/04 12:18:07;;;;;;;0.00;0.00;;;10.60;99.90;;;;;;5033308;28;20053;-61
2022/03/04 12:20:42;;;;;;;0.00;0.00;;;10.60;99.90;;;;;;5025501;28;20549;-60
2022/03/04 12:23:14;;;;;;;0.00;0.00;;;10.30;99.90;;;;;;5032242;28;20032;-61
2022/03/04 12:26:00;;;;;;;0.00;0.00;;;10.30;99.90;;;;;;5029309;28;20033;-62
2022/03/04 12:28:39;;;;;;;0.00;0.00;;;10.40;99.90;;;;;;5013239;28;20049;-61
2022/03/04 12:31:05;;;;;;;0.00;0.00;;;10.60;99.90;;;;;;5021593;28;20053;-61
2022/03/04 12:33:34;;;;;;;0.00;0.00;;;10.50;99.90;;;;;;4999723;28;20677;-62
2022/03/04 12:36:01;;;;;;;0.00;0.00;;;10.30;99.90;;;;;;5011053;28;20026;-62
2022/03/04 12:38:28;;;;;;;0.00;0.00;;;10.40;99.90;;;;;;5017283;28;20122;-62
2022/03/04 12:41:00;;;;;;;0.00;0.00;;;10.60;99.90;;;;;;5027898;28;20041;-62
2022/03/04 12:43:26;;;;;;;0.00;0.00;;;10.60;99.90;;;;;;5029830;28;20407;-62
2022/03/04 12:45:52;;;;;;;;;;;10.70;99.90;;;;;;5027484;28;20624;-61
2022/03/04 12:48:19;;;;;;;0.00;0.00;;;10.70;99.90;;;;;;5030996;28;19909;-62
2022/03/04 12:50:45;;;;;;;0.00;0.00;;;10.90;99.90;;;;;;5033124;28;20045;-63
2022/03/04 12:53:27;;;;;;;0.00;0.00;;;10.90;99.90;;;;;;5030821;28;20096;-61
2022/03/04 12:55:55;;;;;;;0.00;0.00;;;10.80;99.90;;;;;;5012856;28;20482;-62
2022/03/04 12:58:45;;;;;;;0.00;0.00;;;11.00;99.90;;;;;;5030141;28;20444;-63
2022/03/04 13:01:12;;;;;;;0.00;0.00;;;10.90;99.90;;;;;;5023637;28;20029;-62
2022/03/04 13:03:38;;;;;;;0.00;0.00;;;11.10;99.90;;;;;;5026027;28;20535;-62
2022/03/04 13:06:04;;;;;;;0.00;0.00;;;11.20;99.90;;;;;;5026699;28;20415;-61
2022/03/04 13:08:32;;;;;;;0.00;0.00;;;11.20;99.90;;;;;;5012428;28;20121;-62